Latest Weather Observations for Mount Hotham Airport

IDV60801

Issued at 10:31 am EST Monday 6 July 2015 (issued every 30 minutes, with the page automatically refreshed every 10 minutes)

About weather observations | Map of weather stations | Latest weather observations for VIC | Other Formats
Station Details ID: 083055 Name: MOUNT HOTHAM AIRPORT Lat: -37.05 Lon: 147.33 Height: 1295.4 m
Data from the previous 72 hours. | See also: Recent months at Mount Hotham Airport
Date/Time
EST
Temp
°C
App
Temp
°C
Dew
Point
Rel
Hum
%
Delta-T
°C
Wind Press
QNH
hPa
Press
MSL
hPa
Rain
since 9 am
mm
Dir
 
Spd
km/h
Gust
km/h
Spd
kts
Gust
kts
06/10:30am 1.8 -0.4 0.8 93 0.4 N 2 7 1 4 1015.5 - 0.0
06/10:00am 1.6 -0.7 0.3 91 0.5 N 2 6 1 3 1015.6 - 0.0
06/09:30am 1.6 -1.1 0.3 91 0.5 NNW 4 7 2 4 1015.5 - 0.0
06/09:00am 1.7 -1.2 1.6 99 0.0 NW 6 7 3 4 1015.3 1019.4 0.0
06/08:30am -0.7 -4.1 -0.8 99 0.0 NNW 7 9 4 5 1015.3 - 0.0
06/08:23am -1.0 -4.8 -1.1 99 0.0 NNW 9 13 5 7 1015.3 - 0.0
06/08:19am -1.0 -4.8 -1.1 99 0.0 NNW 9 13 5 7 1015.3 - 0.0
06/08:07am -1.8 -6.1 -1.9 99 -0.1 NNW 11 15 6 8 1015.2 - 0.0
06/08:03am -1.8 -6.1 -1.9 99 -0.1 NNW 11 15 6 8 1015.2 - 0.0
06/08:00am -2.0 -6.0 -2.1 99 -0.1 NNW 9 13 5 7 1015.2 - 0.0
06/07:30am -3.8 -6.3 -3.9 99 -0.1 CALM 0 4 0 2 1015.3 - 0.0
06/07:00am -2.6 -6.7 -2.7 99 -0.1 NNW 9 13 5 7 1015.1 - 0.0
06/06:30am -4.9 -8.6 -5.0 99 -0.2 NNW 6 7 3 4 1015.1 - 0.0
06/06:00am -4.1 -7.4 -4.2 99 -0.1 NNW 4 6 2 3 1015.2 1019.3 0.0
06/05:30am -4.5 -8.8 -4.6 99 -0.2 NW 9 11 5 6 1015.1 - 0.0
06/05:06am -2.9 -7.0 -3.0 99 -0.1 NNW 9 11 5 6 1014.9 - 0.0
06/05:02am -2.9 -7.0 -3.0 99 -0.1 NNW 9 11 5 6 1014.9 - 0.0
06/05:00am -3.3 -7.4 -3.4 99 -0.1 NNW 9 11 5 6 1014.9 - 0.0
06/04:56am -4.9 -9.2 -5.0 99 -0.2 NNW 9 9 5 5 1015.1 - 0.0
06/04:52am -4.9 -9.2 -5.0 99 -0.2 NNW 9 9 5 5 1015.1 - 0.0
06/04:30am -3.1 -6.8 -3.2 99 -0.1 N 7 9 4 5 1015.1 - 0.0
06/04:15am -4.5 -8.4 -4.6 99 -0.2 N 7 9 4 5 1015.1 - 0.0
06/04:11am -4.5 -8.4 -4.6 99 -0.2 N 7 9 4 5 1015.1 - 0.0
06/04:00am -3.6 -6.8 -3.7 99 -0.1 NNW 4 6 2 3 1015.1 - 0.0
06/03:30am -4.6 -7.9 -4.7 99 -0.2 NNW 4 4 2 2 1015.3 - 0.0
06/03:29am -4.6 -7.9 -4.7 99 -0.2 NNW 4 6 2 3 1015.3 - 0.0
06/03:25am -4.6 -7.9 -4.7 99 -0.2 NNW 4 6 2 3 1015.3 - 0.0
06/03:00am -3.7 -7.5 -3.8 99 -0.1 NNW 7 7 4 4 1015.5 1019.6 0.0
06/02:52am -4.4 -8.1 -4.5 99 -0.2 NNW 6 7 3 4 1015.6 - 0.0
06/02:48am -4.4 -8.1 -4.5 99 -0.2 NNW 6 7 3 4 1015.6 - 0.0
06/02:30am -3.1 -6.6 -3.2 99 -0.1 NNW 6 7 3 4 1015.9 - 0.0
06/02:20am -3.9 -7.5 -4.0 99 -0.1 NNW 6 7 3 4 1016.0 - 0.0
06/02:16am -3.9 -7.5 -4.0 99 -0.1 NNW 6 7 3 4 1016.0 - 0.0
06/02:00am -3.8 -7.4 -3.9 99 -0.1 N 6 9 3 5 1016.0 - 0.0
06/01:30am -3.6 -6.5 -3.9 98 -0.1 NNW 2 4 1 2 1016.1 - 0.0
06/01:00am -2.3 -6.0 -2.6 98 0.0 NNW 7 9 4 5 1016.2 - 0.0
06/12:30am -4.0 -7.9 -4.8 94 0.1 NNW 7 7 4 4 1016.3 - 0.0
06/12:00am -2.0 -6.0 -2.4 97 0.0 NNW 9 9 5 5 1016.5 1020.7 0.0
 
Date/Time
EST
Temp
°C
App
Temp
°C
Dew
Point
Rel
Hum
%
Delta-T
°C
Wind Press
QNH
hPa
Press
MSL
hPa
Rain
since 9 am
mm
Dir
 
Spd
km/h
Gust
km/h
Spd
kts
Gust
kts
05/11:30pm -1.4 -5.7 -1.5 99 0.0 N 11 13 6 7 1016.8 - 0.0
05/11:00pm -3.1 -6.7 -3.6 96 0.0 NW 6 7 3 4 1017.0 - 0.0
05/10:30pm -1.5 -5.1 -2.2 95 0.2 N 7 9 4 5 1017.1 - 0.0
05/10:00pm -1.0 -4.3 -1.4 97 0.1 NNW 6 7 3 4 1017.1 - 0.0
05/09:50pm -1.2 -5.5 -1.6 97 0.1 NNW 11 13 6 7 1017.2 - 0.0
05/09:46pm -1.2 -5.5 -1.6 97 0.1 NNW 11 13 6 7 1017.2 - 0.0
05/09:37pm -1.5 -6.2 -1.9 97 0.1 NW 13 15 7 8 1017.2 - 0.0
05/09:33pm -1.5 -6.2 -1.9 97 0.1 NW 13 15 7 8 1017.2 - 0.0
05/09:30pm -2.1 -6.9 -2.6 96 0.1 NW 13 15 7 8 1017.2 - 0.0
05/09:00pm -0.7 -5.3 -1.4 95 0.2 NW 13 15 7 8 1017.4 1021.6 0.0
05/08:30pm -0.7 -4.2 -1.7 93 0.3 WNW 7 15 4 8 1017.7 - 0.0
05/08:00pm 0.4 -2.8 -0.6 93 0.4 NW 6 13 3 7 1017.9 - 0.0
05/07:30pm 0.1 -5.3 -1.2 91 0.5 WNW 17 22 9 12 1018.0 - 0.0
05/07:07pm 1.2 -3.3 -0.1 91 0.5 WNW 13 17 7 9 1018.2 - 0.0
05/07:03pm 1.2 -3.3 -0.1 91 0.5 WNW 13 17 7 9 1018.2 - 0.0
05/07:00pm 1.2 -2.9 -0.1 91 0.5 W 11 17 6 9 1018.2 - 0.0
05/06:49pm 1.2 -2.5 0.0 92 0.5 W 9 19 5 10 1018.2 - 0.0
05/06:45pm 1.2 -2.5 0.0 92 0.5 W 9 19 5 10 1018.2 - 0.0
05/06:30pm 0.9 -2.2 0.0 94 0.4 W 6 13 3 7 1018.2 - 0.0
05/06:13pm 0.2 -2.7 -0.9 92 0.4 WSW 4 6 2 3 1018.1 - 0.0
05/06:09pm 0.2 -2.7 -0.9 92 0.4 WSW 4 6 2 3 1018.1 - 0.0
05/06:00pm 0.1 -2.8 -1.2 91 0.5 W 4 7 2 4 1018.0 1022.2 0.0
05/05:54pm 0.2 -3.1 -1.2 90 0.5 W 6 7 3 4 1018.0 - 0.0
05/05:50pm 0.2 -3.1 -1.2 90 0.5 W 6 7 3 4 1018.0 - 0.0
05/05:30pm 1.1 -3.0 -0.5 89 0.6 NW 11 15 6 8 1017.8 - 0.0
05/05:00pm 1.2 -2.7 -1.5 82 1.0 WNW 9 13 5 7 1017.4 - 0.0
05/04:30pm 4.1 -0.5 -0.7 71 1.9 WNW 13 15 7 8 1017.4 - 0.0
05/04:00pm 5.0 1.0 0.2 71 2.0 NNW 11 15 6 8 1017.4 - 0.0
05/03:30pm 6.0 1.6 0.1 66 2.5 NNW 13 17 7 9 1017.2 - 0.0
05/03:00pm 7.7 4.0 0.2 59 3.2 WNW 9 15 5 8 1017.1 1021.2 0.0
05/02:30pm 7.8 3.3 -0.2 57 3.4 WNW 13 19 7 10 1017.2 - 0.0
05/02:00pm 8.9 4.5 0.6 56 3.6 N 13 20 7 11 1017.3 - 0.0
05/01:30pm 8.5 3.6 -0.3 54 3.8 NW 15 26 8 14 1017.4 - 0.0
05/01:00pm 8.1 3.6 -0.1 56 3.5 NNW 13 22 7 12 1017.6 - 0.0
05/12:30pm 7.6 3.9 0.1 59 3.2 N 9 15 5 8 1018.0 - 0.0
05/12:00pm 7.7 3.8 0.9 62 3.0 NW 11 19 6 10 1018.5 1022.7 0.0
05/11:30am 7.1 2.7 0.5 63 2.8 NW 13 19 7 10 1019.1 - 0.0
05/11:00am 7.5 3.6 0.9 63 2.9 NW 11 15 6 8 1019.5 - 0.0
05/10:30am 7.0 4.6 2.3 72 2.1 SSW 4 7 2 4 1019.7 - 0.0
05/10:00am 5.0 2.2 2.2 82 1.2 S 6 7 3 4 1019.7 - 0.0
05/09:30am 3.8 1.3 1.5 85 1.0 SE 4 6 2 3 1019.7 - 0.0
05/09:00am 3.2 1.1 1.9 91 0.6 W 2 7 1 4 1019.6 1023.8 0.0
05/08:30am 2.8 -0.2 2.2 96 0.3 N 7 11 4 6 1019.3 - 0.0
05/08:00am 1.4 -0.9 0.7 95 0.3 ESE 2 4 1 2 1019.3 - 0.0
05/07:58am 1.4 -0.9 0.7 95 0.3 ESE 2 4 1 2 1019.4 - 0.0
05/07:54am 1.4 -0.9 0.7 95 0.3 ESE 2 4 1 2 1019.4 - 0.0
05/07:47am 1.3 -1.0 0.4 94 0.4 W 2 6 1 3 1019.4 - 0.0
05/07:43am 1.3 -1.0 0.4 94 0.4 W 2 6 1 3 1019.4 - 0.0
05/07:30am 1.5 -0.8 0.3 92 0.5 NNW 2 6 1 3 1019.4 - 0.0
05/07:00am 2.1 -0.9 0.8 91 0.5 NNW 6 9 3 5 1019.3 - 0.0
05/06:30am 2.4 -0.6 1.7 95 0.3 NNW 7 13 4 7 1019.0 - 0.0
05/06:00am 2.0 -1.1 1.1 94 0.4 N 7 9 4 5 1018.9 1023.1 0.0
05/05:30am 2.2 -0.6 1.8 97 0.2 N 6 9 3 5 1018.9 - 0.0
05/05:02am 1.1 -0.8 0.7 97 0.2 CALM 0 2 0 1 1019.0 - 0.0
05/05:00am 1.1 -0.8 0.7 97 0.2 CALM 0 2 0 1 1019.0 - 0.0
05/04:58am 1.1 -0.8 0.7 97 0.2 CALM 0 2 0 1 1019.0 - 0.0
05/04:44am 1.2 -1.5 0.6 96 0.2 NW 4 6 2 3 1019.1 - 0.0
05/04:40am 1.2 -1.5 0.6 96 0.2 NW 4 6 2 3 1019.1 - 0.0
05/04:30am 1.1 -1.2 0.4 95 0.3 NW 2 4 1 2 1019.1 - 0.0
05/04:00am 1.3 -1.0 0.7 96 0.2 ENE 2 4 1 2 1019.0 - 0.0
05/03:30am 1.6 -1.4 0.7 94 0.4 N 6 6 3 3 1019.1 - 0.0
05/03:00am 1.4 -1.6 0.5 94 0.4 NNW 6 7 3 4 1019.3 1023.5 0.0
05/02:30am 2.0 -0.9 1.6 97 0.2 NNW 6 7 3 4 1019.3 - 0.0
05/02:00am 0.9 -1.1 0.0 94 0.4 CALM 0 2 0 1 1019.6 - 0.0
05/01:30am 1.2 -1.5 0.0 92 0.5 NNW 4 6 2 3 1019.7 - 0.0
05/01:00am 2.3 -1.2 1.0 91 0.5 N 9 11 5 6 1019.6 - 0.0
05/12:30am 2.4 -0.7 1.1 91 0.5 NNW 7 11 4 6 1019.9 - 0.0
05/12:00am 2.5 -1.3 1.5 93 0.4 N 11 13 6 7 1020.2 1024.4 0.0
 
Date/Time
EST
Temp
°C
App
Temp
°C
Dew
Point
Rel
Hum
%
Delta-T
°C
Wind Press
QNH
hPa
Press
MSL
hPa
Rain
since 9 am
mm
Dir
 
Spd
km/h
Gust
km/h
Spd
kts
Gust
kts
04/11:30pm 2.9 -0.2 1.3 89 0.7 N 7 9 4 5 1020.4 - 0.0
04/11:00pm 3.4 0.6 1.8 89 0.7 N 6 7 3 4 1020.6 - 0.0
04/10:30pm 3.0 0.2 2.0 93 0.4 NW 6 6 3 3 1020.6 - 0.0
04/10:00pm 2.6 -0.3 1.6 93 0.4 W 6 7 3 4 1020.6 - 0.0
04/09:30pm 2.0 -0.6 0.7 91 0.5 W 4 6 2 3 1020.6 - 0.0
04/09:00pm 2.7 -0.2 1.5 92 0.5 NNW 6 7 3 4 1020.7 1025.0 0.0
04/08:30pm 2.5 -0.6 1.2 91 0.5 NNW 7 7 4 4 1020.6 - 0.0
04/08:00pm 2.7 -0.4 1.4 91 0.5 NW 7 9 4 5 1020.6 - 0.0
04/07:30pm 2.6 -0.4 1.1 90 0.6 NW 6 7 3 4 1020.8 - 0.0
04/07:00pm 2.4 -0.3 0.5 87 0.8 WNW 4 9 2 5 1020.7 - 0.0
04/06:30pm 3.1 0.1 1.0 86 0.9 NNW 6 9 3 5 1020.5 - 0.0
04/06:00pm 3.2 0.6 0.8 84 1.0 NE 4 6 2 3 1020.4 1024.6 0.0
04/05:30pm 3.2 0.6 0.8 84 1.0 NNW 4 6 2 3 1020.1 - 0.0
04/05:00pm 3.3 0.2 0.4 81 1.2 NW 6 9 3 5 1019.9 - 0.0
04/04:30pm 3.7 -0.7 0.6 80 1.3 W 13 24 7 13 1019.8 - 0.0
04/04:00pm 4.2 1.0 0.7 78 1.5 W 7 17 4 9 1020.1 - 0.0
04/03:30pm 4.3 0.0 0.8 78 1.5 W 13 20 7 11 1019.8 - 0.0
04/03:00pm 4.5 0.9 0.6 76 1.6 WSW 9 20 5 11 1019.7 1023.9 0.0
04/02:30pm 5.0 1.0 0.4 72 1.9 W 11 19 6 10 1019.6 - 0.0
04/02:00pm 5.4 1.0 0.2 69 2.2 W 13 24 7 13 1019.8 - 0.0
04/01:30pm 6.3 2.3 0.4 66 2.5 W 11 17 6 9 1019.6 - 0.0
04/01:00pm 6.4 2.4 0.3 65 2.6 S 11 19 6 10 1019.7 - 0.0
04/12:30pm 7.5 3.5 0.5 61 3.0 WSW 11 20 6 11 1019.8 - 0.0
04/12:00pm 6.2 2.1 -0.3 63 2.7 SW 11 19 6 10 1020.3 1024.5 0.0
04/11:30am 7.4 4.3 1.3 65 2.7 W 7 15 4 8 1020.5 - 0.0
04/11:00am 5.7 1.7 0.3 68 2.3 W 11 19 6 10 1021.1 - 0.0
04/10:30am 4.5 0.5 0.8 77 1.6 W 11 19 6 10 1021.1 - 0.0
04/10:00am 3.7 -1.1 0.2 78 1.4 W 15 22 8 12 1021.0 - 0.0
04/09:30am 3.0 -0.7 -0.3 79 1.3 WSW 9 17 5 9 1020.8 - 0.0
04/09:00am 2.2 -1.2 -2.3 72 1.7 N 6 7 3 4 1020.8 1025.1 0.2
04/08:30am 0.9 -2.4 -4.1 69 1.8 NNW 4 9 2 5 1020.8 - 0.2
04/08:00am -2.2 -6.5 -4.8 82 0.8 NW 9 13 5 7 1020.8 - 0.2
04/07:30am -2.6 -7.0 -5.4 81 0.8 SE 9 13 5 7 1020.7 - 0.2
04/07:00am -2.2 -5.6 -5.2 80 0.9 WSW 4 9 2 5 1020.2 - 0.2
04/06:30am -1.7 -5.1 -5.5 75 1.2 NNW 4 7 2 4 1019.8 - 0.2
04/06:00am -1.2 -5.2 -5.6 72 1.4 N 7 9 4 5 1019.5 1023.7 0.2
04/05:30am -2.4 -6.5 -6.4 74 1.2 NNW 7 9 4 5 1019.6 - 0.2
04/05:00am -2.7 -7.2 -6.9 73 1.2 W 9 15 5 8 1019.5 - 0.2
04/04:50am -2.9 -6.8 -6.5 76 1.0 NW 6 7 3 4 1019.6 - 0.2
04/04:46am -2.9 -6.8 -6.5 76 1.0 NW 6 7 3 4 1019.6 - 0.2
04/04:37am -3.2 -7.1 -6.3 79 0.9 NNW 6 7 3 4 1019.5 - 0.2
04/04:33am -3.2 -7.1 -6.3 79 0.9 NNW 6 7 3 4 1019.5 - 0.2
04/04:30am -3.1 -7.1 -6.0 80 0.8 NNW 7 9 4 5 1019.4 - 0.2
04/04:00am -3.2 -7.1 -7.0 75 1.1 NNW 6 7 3 4 1019.3 - 0.2
04/03:30am -3.1 -7.0 -6.9 75 1.1 NNW 6 9 3 5 1019.6 - 0.2
04/03:00am -1.8 -5.8 -7.1 67 1.6 NNW 6 9 3 5 1019.6 1023.8 0.2
04/02:30am -2.9 -6.9 -7.2 72 1.2 NNW 6 9 3 5 1019.8 - 0.2
04/02:00am -2.2 -6.1 -6.9 70 1.4 N 6 9 3 5 1019.8 - 0.2
04/01:30am -2.1 -6.9 -6.5 72 1.3 NNW 11 15 6 8 1020.3 - 0.2
04/01:00am -3.1 -7.0 -6.2 79 0.9 NNW 6 7 3 4 1020.4 - 0.2
04/12:30am -2.6 -6.6 -5.9 78 1.0 N 7 11 4 6 1020.4 - 0.2
04/12:14am -3.9 -7.4 -6.2 84 0.6 WNW 4 6 2 3 1020.7 - 0.2
04/12:10am -3.9 -7.4 -6.2 84 0.6 WNW 4 6 2 3 1020.7 - 0.2
04/12:04am -3.8 -7.7 -6.4 82 0.7 NW 6 7 3 4 1020.8 - 0.2
04/12:00am -3.8 -7.7 -6.4 82 0.7 NW 6 7 3 4 1020.8 1025.1 0.2
 
Date/Time
EST
Temp
°C
App
Temp
°C
Dew
Point
Rel
Hum
%
Delta-T
°C
Wind Press
QNH
hPa
Press
MSL
hPa
Rain
since 9 am
mm
Dir
 
Spd
km/h
Gust
km/h
Spd
kts
Gust
kts
03/11:30pm -2.7 -7.5 -5.7 80 0.9 NNW 11 13 6 7 1020.8 - 0.2
03/11:28pm -3.0 -8.1 -5.6 82 0.7 NNW 13 17 7 9 1021.0 - 0.2
03/11:24pm -3.0 -8.1 -5.6 82 0.7 NNW 13 17 7 9 1021.0 - 0.2
03/11:16pm -3.0 -7.7 -5.3 84 0.6 NNW 11 15 6 8 1020.8 - 0.2
03/11:12pm -3.0 -7.7 -5.3 84 0.6 NNW 11 15 6 8 1020.8 - 0.2
03/11:08pm -3.0 -7.3 -5.2 85 0.6 NNW 9 13 5 7 1021.0 - 0.2
03/11:00pm -3.4 -7.8 -5.5 85 0.5 NNW 9 13 5 7 1021.1 - 0.2
03/10:53pm -4.1 -8.2 -6.5 83 0.6 NW 7 11 4 6 1021.2 - 0.2
03/10:49pm -4.1 -8.2 -6.5 83 0.6 NW 7 11 4 6 1021.2 - 0.2
03/10:30pm -3.5 -7.9 -5.8 84 0.6 NNW 9 13 5 7 1021.3 - 0.2
03/10:00pm -2.9 -8.5 -6.2 78 0.9 NNW 15 22 8 12 1021.4 - 0.2
03/09:30pm -3.8 -7.5 -4.9 92 0.2 WNW 6 7 3 4 1021.9 - 0.2
03/09:00pm -4.5 -9.3 -5.7 91 0.2 NNW 11 13 6 7 1021.8 1026.1 0.2
03/08:30pm -4.5 -8.3 -5.9 90 0.3 N 6 7 3 4 1022.0 - 0.2
03/08:00pm -3.9 -9.4 -5.6 88 0.4 NW 15 17 8 9 1022.3 - 0.2
03/07:43pm -3.6 -9.1 -5.3 88 0.4 NW 15 19 8 10 1022.4 - 0.2
03/07:39pm -3.6 -9.1 -5.3 88 0.4 NW 15 19 8 10 1022.4 - 0.2
03/07:30pm -2.6 -8.3 -3.9 91 0.3 NW 17 20 9 11 1022.5 - 0.2
03/07:25pm -3.4 -8.1 -4.7 91 0.3 NW 11 15 6 8 1022.4 - 0.2
03/07:21pm -3.4 -8.1 -4.7 91 0.3 NW 11 15 6 8 1022.4 - 0.2
03/07:00pm -4.5 -8.9 -5.9 90 0.3 NW 9 11 5 6 1022.7 - 0.2
03/06:30pm -3.6 -7.6 -5.3 88 0.4 WNW 7 9 4 5 1022.5 - 0.2
03/06:00pm -2.3 -6.2 -4.5 85 0.6 NW 7 9 4 5 1022.4 1026.8 0.2
03/05:30pm -1.0 -4.6 -3.4 84 0.8 WNW 6 9 3 5 1022.3 - 0.2
03/05:00pm 1.4 -1.1 -1.3 82 1.0 W 2 6 1 3 1022.2 - 0.2
03/04:30pm 2.3 -1.0 -1.1 78 1.3 ESE 6 7 3 4 1022.3 - 0.2
03/04:00pm 2.7 -0.8 -1.1 76 1.5 SE 7 9 4 5 1022.3 - 0.2
03/03:30pm 4.1 0.8 -0.9 70 2.0 E 6 9 3 5 1022.3 - 0.2
03/03:00pm 3.9 0.5 -0.9 71 1.9 ESE 7 11 4 6 1022.1 1026.4 0.2
03/02:30pm 4.0 0.5 -1.0 70 2.0 ESE 7 11 4 6 1021.8 - 0.2
03/02:00pm 4.4 1.0 -0.6 70 2.0 E 7 9 4 5 1022.0 - 0.2
03/01:30pm 3.6 0.1 -1.2 71 1.9 E 7 13 4 7 1022.3 - 0.2
03/01:00pm 3.6 0.1 -1.3 70 1.9 ENE 7 13 4 7 1022.8 - 0.2
03/12:30pm 3.1 -0.7 -1.1 74 1.7 NE 9 13 5 7 1023.3 - 0.2
03/12:00pm 2.7 -0.9 -1.8 72 1.7 ENE 7 13 4 7 1023.9 1028.3 0.2
03/11:30am 1.3 -2.0 -1.6 81 1.1 SW 6 7 3 4 1024.5 - 0.2
03/11:00am 0.4 -3.0 -1.7 86 0.8 ESE 6 9 3 5 1024.8 - 0.2
03/10:55am -0.2 -3.6 -2.1 87 0.7 SE 6 9 3 5 1024.8 - 0.2
03/10:51am -0.2 -3.6 -2.1 87 0.7 SE 6 9 3 5 1024.8 - 0.2

Other Formats:

Comma delimited format used in spreadsheet applications
http://www.bom.gov.au/fwo/IDV60801/IDV60801.94905.axf

JavaScript Object Notation format (JSON) in row-major order
http://www.bom.gov.au/fwo/IDV60801/IDV60801.94905.json